Time;durP1;ratioP1;P1;durP2;ratioP2;P2;SDS_P1;SDS_P2;PMS_P1;PMS_P2;Temp;Humidity;BMP_temperature;BMP_pressure;BME280_temperature;BME280_humidity;BME280_pressure;Samples;Min_cycle;Max_cycle;Signal;HPM_P1;HPM_P2
2021/07/26 00:02:01;;;;;;;12.40;8.33;;;;;;;;;;5012732;28;20291;-67
2021/07/26 00:04:26;;;;;;;14.70;9.13;;;;;;;;;;5017491;28;20272;-66
2021/07/26 00:06:51;;;;;;;12.03;8.47;;;;;;;;;;5016371;28;20528;-66
2021/07/26 00:09:16;;;;;;;12.70;9.23;;;;;;;;;;5008225;28;20281;-66
2021/07/26 00:11:41;;;;;;;13.07;8.50;;;;;;;;;;5021771;28;20271;-66
2021/07/26 00:14:06;;;;;;;12.35;8.70;;;;;;;;;;5010517;28;20996;-68
2021/07/26 00:16:32;;;;;;;12.60;8.23;;;;;;;;;;5011046;28;20030;-67
2021/07/26 00:18:57;;;;;;;13.75;8.68;;;;;;;;;;5007767;28;20075;-67
2021/07/26 00:21:22;;;;;;;11.67;8.30;;;;;;;;;;5019825;28;20531;-66
2021/07/26 00:23:47;;;;;;;13.30;8.53;;;;;;;;;;5021964;28;20367;-66
2021/07/26 00:26:13;;;;;;;11.45;7.78;;;;;;;;;;5012280;28;20327;-66
2021/07/26 00:28:39;;;;;;;13.98;8.15;;;;;;;;;;5010836;28;20496;-66
2021/07/26 00:31:04;;;;;;;12.27;8.40;;;;;;;;;;5019618;28;20028;-66
2021/07/26 00:34:09;;;;;;;15.70;9.07;;;;;;;;;;5009061;28;20806;-66
2021/07/26 00:36:40;;;;;;;12.25;8.00;;;;;;;;;;5008947;28;20273;-66
2021/07/26 00:39:06;;;;;;;11.23;7.95;;;;;;;;;;5017891;28;20018;-65
2021/07/26 00:41:32;;;;;;;11.15;8.02;;;;;;;;;;5009778;28;20037;-67
2021/07/26 00:43:57;;;;;;;11.55;7.75;;;;;;;;;;5014514;28;20045;-66
2021/07/26 00:46:22;;;;;;;10.73;7.68;;;;;;;;;;5007877;28;20026;-65
2021/07/26 00:48:47;;;;;;;10.88;7.72;;;;;;;;;;5012914;28;20082;-65
2021/07/26 00:51:13;;;;;;;10.95;7.45;;;;;;;;;;5007561;28;20044;-66
2021/07/26 00:53:39;;;;;;;12.27;8.27;;;;;;;;;;5009803;28;20416;-66
2021/07/26 00:56:04;;;;;;;9.80;7.32;;;;;;;;;;5011274;28;20018;-66
2021/07/26 00:58:29;;;;;;;9.65;7.13;;;;;;;;;;5011181;28;20029;-67
2021/07/26 01:00:56;;;;;;;14.00;8.10;;;;;;;;;;5015048;28;20017;-68
2021/07/26 01:03:21;;;;;;;12.98;8.00;;;;;;;;;;5012868;28;20079;-66
2021/07/26 01:05:46;;;;;;;12.45;8.00;;;;;;;;;;5017328;28;20026;-66
2021/07/26 01:08:11;;;;;;;12.03;8.57;;;;;;;;;;5012162;28;20478;-67
2021/07/26 01:10:36;;;;;;;12.95;9.07;;;;;;;;;;5012058;28;20358;-66
2021/07/26 01:13:02;;;;;;;12.43;8.73;;;;;;;;;;5013678;28;20022;-67
2021/07/26 01:15:27;;;;;;;11.88;7.75;;;;;;;;;;5018850;28;20542;-66
2021/07/26 01:18:15;;;;;;;13.15;8.75;;;;;;;;;;5017638;28;20025;-67
2021/07/26 01:20:40;;;;;;;13.73;8.98;;;;;;;;;;5020219;28;20052;-67
2021/07/26 01:23:05;;;;;;;12.30;9.18;;;;;;;;;;5018551;28;20779;-66
2021/07/26 01:25:34;;;;;;;13.57;8.82;;;;;;;;;;5013737;28;20018;-65
2021/07/26 01:27:59;;;;;;;11.88;8.23;;;;;;;;;;5012499;28;20033;-68
2021/07/26 01:30:24;;;;;;;11.95;8.27;;;;;;;;;;5007724;28;20491;-66
2021/07/26 01:32:49;;;;;;;12.05;8.18;;;;;;;;;;5022613;28;20379;-66
2021/07/26 01:35:14;;;;;;;11.17;8.00;;;;;;;;;;5013708;28;20386;-66
2021/07/26 01:37:39;;;;;;;12.43;8.20;;;;;;;;;;5011422;28;20366;-66
2021/07/26 01:40:05;;;;;;;11.20;7.77;;;;;;;;;;5013826;28;20725;-65
2021/07/26 01:42:30;;;;;;;12.93;8.13;;;;;;;;;;5011074;28;20422;-66
2021/07/26 01:44:57;;;;;;;11.63;7.80;;;;;;;;;;5015107;28;20105;-66
2021/07/26 01:47:25;;;;;;;11.45;7.40;;;;;;;;;;5013862;28;20293;-65
2021/07/26 01:50:06;;;;;;;9.40;7.15;;;;;;;;;;5012884;28;20021;-66
2021/07/26 01:52:31;;;;;;;10.70;7.22;;;;;;;;;;5008872;28;20017;-66
2021/07/26 01:54:57;;;;;;;11.77;7.53;;;;;;;;;;5016267;28;20033;-66
2021/07/26 01:57:22;;;;;;;10.95;6.90;;;;;;;;;;5011478;28;20424;-66
2021/07/26 01:59:47;;;;;;;11.57;8.02;;;;;;;;;;5019258;28;20070;-66
2021/07/26 02:02:12;;;;;;;9.20;6.77;;;;;;;;;;5011505;28;20500;-66
2021/07/26 02:04:37;;;;;;;10.43;7.03;;;;;;;;;;5013497;28;20284;-66
2021/07/26 02:07:06;;;;;;;11.95;7.32;;;;;;;;;;5010882;28;20605;-65
2021/07/26 02:09:31;;;;;;;9.20;6.50;;;;;;;;;;5012508;28;20068;-67
2021/07/26 02:11:56;;;;;;;11.45;7.35;;;;;;;;;;5010986;28;20025;-66
2021/07/26 02:14:21;;;;;;;9.88;6.85;;;;;;;;;;5012892;28;20381;-66
2021/07/26 02:16:50;;;;;;;12.13;7.35;;;;;;;;;;5015391;28;20373;-66
2021/07/26 02:19:15;;;;;;;8.80;6.28;;;;;;;;;;5014336;28;20021;-66
2021/07/26 02:21:40;;;;;;;10.37;6.33;;;;;;;;;;5015377;28;20397;-64
2021/07/26 02:24:07;;;;;;;9.33;6.80;;;;;;;;;;5024246;28;20300;-66
2021/07/26 02:26:32;;;;;;;10.32;6.85;;;;;;;;;;5010376;28;20732;-66
2021/07/26 02:28:58;;;;;;;8.70;6.23;;;;;;;;;;5015725;28;20081;-67
2021/07/26 02:31:23;;;;;;;7.90;5.80;;;;;;;;;;5010959;28;20268;-66
2021/07/26 02:33:48;;;;;;;9.68;6.20;;;;;;;;;;5011098;28;20040;-66
2021/07/26 02:36:13;;;;;;;10.77;6.53;;;;;;;;;;5011731;28;20044;-66
2021/07/26 02:38:38;;;;;;;9.52;6.10;;;;;;;;;;5016948;28;20476;-66
2021/07/26 02:41:11;;;;;;;10.82;6.35;;;;;;;;;;5015735;28;20022;-66
2021/07/26 02:43:36;;;;;;;7.78;5.45;;;;;;;;;;5014408;28;20080;-66
2021/07/26 02:46:04;;;;;;;8.20;5.55;;;;;;;;;;5008591;28;20022;-65
2021/07/26 02:48:29;;;;;;;11.80;5.78;;;;;;;;;;5015313;28;20045;-66
2021/07/26 02:50:54;;;;;;;9.38;5.90;;;;;;;;;;5016035;28;20366;-65
2021/07/26 02:53:19;;;;;;;7.63;5.83;;;;;;;;;;5010387;28;20312;-66
2021/07/26 02:55:44;;;;;;;9.43;5.32;;;;;;;;;;5009719;28;20273;-65
2021/07/26 02:58:09;;;;;;;9.13;5.97;;;;;;;;;;5019527;28;20643;-67
2021/07/26 03:00:35;;;;;;;9.20;5.35;;;;;;;;;;5014953;28;20269;-67
2021/07/26 03:03:00;;;;;;;8.73;5.72;;;;;;;;;;5015263;28;20079;-66
2021/07/26 03:05:27;;;;;;;7.20;5.17;;;;;;;;;;5019282;28;20029;-66
2021/07/26 03:07:52;;;;;;;7.43;5.47;;;;;;;;;;5012476;28;20400;-66
2021/07/26 03:10:17;;;;;;;7.90;5.82;;;;;;;;;;5008140;28;20105;-65
2021/07/26 03:12:42;;;;;;;8.60;5.35;;;;;;;;;;5009853;28;20052;-65
2021/07/26 03:15:08;;;;;;;7.00;5.13;;;;;;;;;;5011493;28;20061;-66
2021/07/26 03:17:33;;;;;;;9.35;5.50;;;;;;;;;;5011035;28;20284;-65
2021/07/26 03:19:58;;;;;;;8.40;5.22;;;;;;;;;;5007985;28;20014;-67
2021/07/26 03:22:42;;;;;;;8.67;4.97;;;;;;;;;;5015824;28;20033;-66
2021/07/26 03:25:08;;;;;;;8.88;5.72;;;;;;;;;;5011564;28;20276;-66
2021/07/26 03:27:33;;;;;;;8.40;5.60;;;;;;;;;;5019069;28;20831;-66
2021/07/26 03:29:58;;;;;;;9.63;5.33;;;;;;;;;;5014874;28;20469;-67
2021/07/26 03:32:23;;;;;;;6.87;4.93;;;;;;;;;;5011731;28;20292;-65
2021/07/26 03:34:48;;;;;;;7.70;4.88;;;;;;;;;;5009619;28;20264;-66
2021/07/26 03:37:14;;;;;;;8.40;5.22;;;;;;;;;;5008268;28;20303;-66
2021/07/26 03:39:39;;;;;;;11.07;5.72;;;;;;;;;;5012228;28;20061;-66
2021/07/26 03:42:04;;;;;;;5.93;4.40;;;;;;;;;;5013267;28;20413;-66
2021/07/26 03:44:29;;;;;;;10.23;5.75;;;;;;;;;;5016412;28;20327;-66
2021/07/26 03:46:57;;;;;;;8.33;5.80;;;;;;;;;;5021412;28;20083;-66
2021/07/26 03:49:22;;;;;;;8.18;5.32;;;;;;;;;;5015302;28;20359;-66
2021/07/26 03:51:47;;;;;;;10.75;5.47;;;;;;;;;;5011476;28;20114;-66
2021/07/26 03:54:13;;;;;;;6.27;5.00;;;;;;;;;;5012533;28;20029;-67
2021/07/26 03:56:38;;;;;;;7.38;5.47;;;;;;;;;;5016471;28;20280;-66
2021/07/26 03:59:03;;;;;;;12.07;5.03;;;;;;;;;;5015257;28;20021;-66
2021/07/26 04:01:28;;;;;;;8.00;5.28;;;;;;;;;;5016449;28;20850;-67
2021/07/26 04:03:53;;;;;;;7.23;5.37;;;;;;;;;;5009483;28;20273;-67
2021/07/26 04:06:20;;;;;;;7.47;5.10;;;;;;;;;;5010151;28;20402;-65
2021/07/26 04:08:48;;;;;;;9.07;4.97;;;;;;;;;;5009700;28;20401;-66
2021/07/26 04:11:19;;;;;;;7.13;5.03;;;;;;;;;;5017438;28;20025;-66
2021/07/26 04:13:44;;;;;;;8.50;5.00;;;;;;;;;;5016994;28;20037;-66
2021/07/26 04:16:10;;;;;;;8.75;5.65;;;;;;;;;;5016652;28;20041;-67
2021/07/26 04:18:35;;;;;;;6.97;4.72;;;;;;;;;;5012170;28;20028;-67
2021/07/26 04:21:09;;;;;;;8.50;5.00;;;;;;;;;;5014469;28;20026;-66
2021/07/26 04:23:34;;;;;;;8.70;5.10;;;;;;;;;;5009019;28;20549;-66
2021/07/26 04:26:00;;;;;;;6.03;4.70;;;;;;;;;;5008458;28;20083;-67
2021/07/26 04:28:25;;;;;;;10.03;5.27;;;;;;;;;;5007083;28;20607;-66
2021/07/26 04:30:50;;;;;;;7.27;5.20;;;;;;;;;;5012477;28;20272;-66
2021/07/26 04:33:15;;;;;;;7.20;4.97;;;;;;;;;;5013012;28;20803;-66
2021/07/26 04:35:40;;;;;;;8.68;4.90;;;;;;;;;;5013135;28;20269;-65
2021/07/26 04:38:05;;;;;;;8.38;4.90;;;;;;;;;;5006258;28;20129;-66
2021/07/26 04:40:31;;;;;;;7.00;4.83;;;;;;;;;;5008366;28;20056;-66
2021/07/26 04:42:56;;;;;;;7.40;5.20;;;;;;;;;;5014171;28;20294;-65
2021/07/26 04:45:21;;;;;;;8.23;4.78;;;;;;;;;;5009412;28;20277;-68
2021/07/26 04:47:46;;;;;;;7.47;5.13;;;;;;;;;;5007368;28;20100;-65
2021/07/26 04:50:11;;;;;;;6.28;4.65;;;;;;;;;;5013297;28;20034;-66
2021/07/26 04:52:37;;;;;;;8.20;5.15;;;;;;;;;;5008754;28;20281;-66
2021/07/26 04:55:02;;;;;;;10.90;4.78;;;;;;;;;;5010425;28;20045;-66
2021/07/26 04:57:27;;;;;;;7.50;5.25;;;;;;;;;;5013922;28;20489;-66
2021/07/26 04:59:53;;;;;;;12.17;5.93;;;;;;;;;;5012732;28;20029;-66
2021/07/26 05:02:18;;;;;;;6.32;4.80;;;;;;;;;;5009671;28;20628;-67
2021/07/26 05:04:43;;;;;;;7.73;5.27;;;;;;;;;;5008320;28;20057;-67
2021/07/26 05:07:08;;;;;;;8.07;5.30;;;;;;;;;;5015141;28;20277;-65
2021/07/26 05:09:38;;;;;;;7.07;4.78;;;;;;;;;;5018195;28;20025;-64
2021/07/26 05:12:04;;;;;;;6.75;4.70;;;;;;;;;;5014825;28;20120;-64
2021/07/26 05:14:30;;;;;;;6.80;5.00;;;;;;;;;;5010864;28;20090;-63
2021/07/26 05:16:55;;;;;;;6.97;4.57;;;;;;;;;;5010387;28;20652;-63
2021/07/26 05:19:20;;;;;;;6.90;4.60;;;;;;;;;;5008390;28;20014;-63
2021/07/26 05:21:45;;;;;;;8.88;4.78;;;;;;;;;;5014495;28;20824;-64
2021/07/26 05:24:11;;;;;;;6.15;4.45;;;;;;;;;;5021676;28;20021;-64
2021/07/26 05:26:36;;;;;;;7.45;4.10;;;;;;;;;;5008535;28;20030;-64
2021/07/26 05:29:01;;;;;;;10.00;4.97;;;;;;;;;;5010401;28;20038;-64
2021/07/26 05:31:26;;;;;;;6.53;4.38;;;;;;;;;;5021270;28;20280;-64
2021/07/26 05:33:51;;;;;;;8.07;4.40;;;;;;;;;;5020677;28;20038;-64
2021/07/26 05:36:17;;;;;;;6.70;4.32;;;;;;;;;;5017718;28;20276;-64
2021/07/26 05:38:42;;;;;;;5.38;3.75;;;;;;;;;;5021236;28;20021;-64
2021/07/26 05:41:08;;;;;;;6.00;3.85;;;;;;;;;;5011103;28;20109;-65
2021/07/26 05:43:33;;;;;;;5.70;4.00;;;;;;;;;;5014796;28;20404;-63
2021/07/26 05:45:58;;;;;;;5.80;4.03;;;;;;;;;;5026577;28;20473;-64
2021/07/26 05:48:23;;;;;;;6.63;4.55;;;;;;;;;;5014603;28;20296;-64
2021/07/26 05:50:48;;;;;;;8.77;4.30;;;;;;;;;;5003176;28;20031;-65
2021/07/26 05:53:14;;;;;;;7.72;4.43;;;;;;;;;;5022967;28;20465;-65
2021/07/26 05:55:39;;;;;;;6.00;3.95;;;;;;;;;;5024948;28;20500;-65
2021/07/26 05:58:05;;;;;;;6.30;3.60;;;;;;;;;;5013631;28;20022;-65
2021/07/26 06:00:37;;;;;;;6.15;4.25;;;;;;;;;;5013000;28;20257;-64
2021/07/26 06:03:02;;;;;;;6.03;4.13;;;;;;;;;;5015435;28;20029;-64
2021/07/26 06:05:27;;;;;;;9.52;4.72;;;;;;;;;;5009509;28;20501;-65
2021/07/26 06:07:53;;;;;;;6.00;4.05;;;;;;;;;;5011523;28;20401;-64
2021/07/26 06:10:18;;;;;;;5.30;3.70;;;;;;;;;;5017468;28;20025;-64
2021/07/26 06:12:44;;;;;;;7.68;4.00;;;;;;;;;;5015536;28;20029;-65
2021/07/26 06:15:09;;;;;;;5.10;3.53;;;;;;;;;;5012510;28;20062;-65
2021/07/26 06:17:34;;;;;;;7.63;3.88;;;;;;;;;;5022858;28;20652;-63
2021/07/26 06:19:59;;;;;;;6.73;3.90;;;;;;;;;;5015502;28;20026;-65
2021/07/26 06:22:24;;;;;;;7.53;3.60;;;;;;;;;;5008124;28;20380;-64
2021/07/26 06:24:50;;;;;;;6.65;3.95;;;;;;;;;;5011320;28;20313;-64
2021/07/26 06:27:15;;;;;;;5.30;3.90;;;;;;;;;;5011207;28;20064;-65
2021/07/26 06:29:40;;;;;;;8.48;3.47;;;;;;;;;;5024609;28;20376;-64
2021/07/26 06:32:06;;;;;;;5.53;4.00;;;;;;;;;;5015582;28;20025;-65
2021/07/26 06:34:31;;;;;;;5.25;3.88;;;;;;;;;;5027231;28;20079;-64
2021/07/26 06:36:56;;;;;;;6.10;4.18;;;;;;;;;;5017367;28;20389;-64
2021/07/26 06:39:22;;;;;;;7.43;4.28;;;;;;;;;;5028048;28;20018;-64
2021/07/26 06:41:47;;;;;;;5.80;4.30;;;;;;;;;;5027294;28;20022;-66
2021/07/26 06:44:12;;;;;;;8.32;4.18;;;;;;;;;;5026830;28;20293;-65
2021/07/26 06:46:40;;;;;;;7.78;4.10;;;;;;;;;;5013925;28;20018;-64
2021/07/26 06:49:05;;;;;;;6.82;3.95;;;;;;;;;;5023628;28;20042;-65
2021/07/26 06:51:30;;;;;;;6.97;4.23;;;;;;;;;;5019842;28;20014;-65
2021/07/26 06:53:56;;;;;;;8.73;4.10;;;;;;;;;;5011080;28;20358;-64
2021/07/26 06:56:21;;;;;;;8.73;4.13;;;;;;;;;;5017061;28;20052;-64
2021/07/26 06:58:46;;;;;;;5.63;4.00;;;;;;;;;;5017496;28;20342;-64
2021/07/26 07:01:12;;;;;;;6.00;3.97;;;;;;;;;;5010959;28;20638;-65
2021/07/26 07:03:38;;;;;;;7.13;3.78;;;;;;;;;;5024196;28;20475;-64
2021/07/26 07:06:04;;;;;;;6.38;3.90;;;;;;;;;;5030203;28;20021;-64
2021/07/26 07:08:29;;;;;;;6.25;3.70;;;;;;;;;;5018784;28;20481;-65
2021/07/26 07:11:02;;;;;;;5.90;3.92;;;;;;;;;;5010999;28;20036;-65
2021/07/26 07:13:27;;;;;;;7.47;3.85;;;;;;;;;;5023113;28;20029;-64
2021/07/26 07:15:52;;;;;;;7.18;3.55;;;;;;;;;;5024278;28;20040;-64
2021/07/26 07:18:17;;;;;;;6.68;3.80;;;;;;;;;;5016670;28;20026;-65
2021/07/26 07:20:42;;;;;;;6.73;3.63;;;;;;;;;;5021657;28;20078;-64
2021/07/26 07:23:08;;;;;;;6.13;3.83;;;;;;;;;;5018781;28;20269;-64
2021/07/26 07:25:33;;;;;;;5.03;3.67;;;;;;;;;;5015686;28;20763;-65
2021/07/26 07:27:58;;;;;;;8.07;3.17;;;;;;;;;;5022532;28;20347;-64
2021/07/26 07:30:23;;;;;;;5.15;3.58;;;;;;;;;;5012777;28;20762;-63
2021/07/26 07:32:48;;;;;;;8.10;3.78;;;;;;;;;;5012928;28;20492;-65
2021/07/26 07:35:14;;;;;;;7.10;3.53;;;;;;;;;;5013845;28;20127;-66
2021/07/26 07:37:39;;;;;;;5.28;3.65;;;;;;;;;;5016912;28;20038;-65
2021/07/26 07:40:05;;;;;;;7.28;3.80;;;;;;;;;;5009474;28;20033;-65
2021/07/26 07:42:32;;;;;;;5.88;3.58;;;;;;;;;;5010288;28;20060;-65
2021/07/26 07:44:57;;;;;;;5.82;3.53;;;;;;;;;;5009733;28;20045;-65
2021/07/26 07:47:22;;;;;;;5.10;3.30;;;;;;;;;;5016348;28;20026;-65
2021/07/26 07:49:47;;;;;;;6.68;3.22;;;;;;;;;;5013715;28;20844;-65
2021/07/26 07:52:13;;;;;;;7.47;3.47;;;;;;;;;;5026099;28;20045;-65
2021/07/26 07:54:38;;;;;;;6.43;3.75;;;;;;;;;;5004430;28;20021;-65
2021/07/26 07:57:04;;;;;;;8.10;3.67;;;;;;;;;;5031723;28;20056;-65
2021/07/26 07:59:30;;;;;;;6.78;3.60;;;;;;;;;;5023011;28;20105;-65
2021/07/26 08:01:55;;;;;;;5.63;3.40;;;;;;;;;;5020216;28;20133;-65
2021/07/26 08:04:20;;;;;;;6.30;3.70;;;;;;;;;;5027520;28;20043;-65
2021/07/26 08:06:45;;;;;;;6.70;3.65;;;;;;;;;;5011335;28;20030;-66
2021/07/26 08:09:10;;;;;;;6.30;3.73;;;;;;;;;;5015822;28;20030;-65
2021/07/26 08:11:36;;;;;;;5.47;3.40;;;;;;;;;;5012455;28;20276;-65
2021/07/26 08:14:01;;;;;;;6.97;3.55;;;;;;;;;;5009817;28;20163;-65
2021/07/26 08:16:26;;;;;;;5.35;3.15;;;;;;;;;;5025315;28;20040;-65
2021/07/26 08:18:51;;;;;;;5.25;3.10;;;;;;;;;;5025362;28;20104;-65
2021/07/26 08:21:17;;;;;;;4.27;3.00;;;;;;;;;;5009532;28;20021;-64
2021/07/26 08:23:42;;;;;;;5.93;2.93;;;;;;;;;;5015511;28;20029;-64
2021/07/26 08:26:07;;;;;;;5.97;2.87;;;;;;;;;;5011840;28;20265;-64
2021/07/26 08:28:32;;;;;;;8.32;3.10;;;;;;;;;;5009661;28;20327;-64
2021/07/26 08:31:00;;;;;;;5.57;3.23;;;;;;;;;;5016178;28;20670;-65
2021/07/26 08:33:25;;;;;;;5.35;3.38;;;;;;;;;;5028754;28;20040;-64
2021/07/26 08:35:50;;;;;;;5.37;3.03;;;;;;;;;;5028763;28;20021;-65
2021/07/26 08:38:16;;;;;;;7.65;3.20;;;;;;;;;;5028456;28;20628;-65
2021/07/26 08:40:41;;;;;;;4.90;3.05;;;;;;;;;;5019067;28;20017;-64
2021/07/26 08:43:08;;;;;;;4.70;3.00;;;;;;;;;;5020174;28;20072;-65
2021/07/26 08:45:33;;;;;;;4.55;3.17;;;;;;;;;;5022598;28;20271;-64
2021/07/26 08:48:09;;;;;;;7.32;3.63;;;;;;;;;;5009076;28;20029;-63
2021/07/26 08:50:35;;;;;;;5.60;3.10;;;;;;;;;;5014902;28;20401;-64
2021/07/26 08:53:01;;;;;;;6.63;3.30;;;;;;;;;;5020156;28;20508;-65
2021/07/26 08:55:29;;;;;;;5.28;3.40;;;;;;;;;;5022179;28;20034;-65
2021/07/26 08:57:54;;;;;;;5.82;3.72;;;;;;;;;;5027619;28;20139;-65
2021/07/26 09:00:20;;;;;;;6.37;3.27;;;;;;;;;;5020908;28;20022;-65
2021/07/26 09:02:45;;;;;;;8.30;3.22;;;;;;;;;;5026509;28;20280;-65
2021/07/26 09:05:11;;;;;;;5.95;3.20;;;;;;;;;;5010766;28;20018;-64
2021/07/26 09:07:38;;;;;;;6.53;3.33;;;;;;;;;;5009024;28;20034;-65
2021/07/26 09:10:10;;;;;;;7.70;3.67;;;;;;;;;;5017820;28;20009;-65
2021/07/26 09:12:37;;;;;;;6.10;3.47;;;;;;;;;;5028746;28;20037;-64
2021/07/26 09:15:03;;;;;;;7.05;3.78;;;;;;;;;;5014756;28;20373;-65
2021/07/26 09:17:38;;;;;;;6.20;3.65;;;;;;;;;;5019514;28;20432;-64
2021/07/26 09:20:03;;;;;;;5.72;3.42;;;;;;;;;;5017160;28;20470;-65
2021/07/26 09:22:32;;;;;;;9.10;3.35;;;;;;;;;;5017722;28;20036;-64
2021/07/26 09:25:36;;;;;;;6.97;3.85;;;;;;;;;;5027171;28;20053;-64
2021/07/26 09:28:04;;;;;;;7.47;3.78;;;;;;;;;;5003136;28;20081;-64
2021/07/26 09:30:33;;;;;;;6.80;3.80;;;;;;;;;;4993212;28;20025;-66
2021/07/26 09:33:00;;;;;;;6.38;3.90;;;;;;;;;;4996090;28;20137;-65
2021/07/26 09:35:25;;;;;;;6.25;3.72;;;;;;;;;;5002517;28;20029;-65
2021/07/26 09:38:16;;;;;;;6.37;3.50;;;;;;;;;;5009321;28;20026;-65
2021/07/26 09:40:45;;;;;;;7.13;3.35;;;;;;;;;;4998844;28;20291;-65
2021/07/26 09:43:14;;;;;;;6.90;3.72;;;;;;;;;;5002925;28;20185;-65
2021/07/26 09:45:39;;;;;;;;;;;;;;;;;;5000340;28;20105;-64
2021/07/26 09:48:12;;;;;;;6.00;3.53;;;;;;;;;;4990161;28;19918;-64
2021/07/26 09:50:38;;;;;;;6.22;4.00;;;;;;;;;;4980029;28;20258;-65
2021/07/26 09:53:10;;;;;;;7.75;4.10;;;;;;;;;;4989750;28;20229;-65
2021/07/26 09:55:36;;;;;;;6.78;3.83;;;;;;;;;;4996098;28;20113;-65
2021/07/26 09:58:01;;;;;;;11.38;3.55;;;;;;;;;;5000343;28;20453;-65
2021/07/26 10:00:27;;;;;;;6.18;3.50;;;;;;;;;;5018071;28;20041;-65
2021/07/26 10:02:53;;;;;;;5.68;3.50;;;;;;;;;;5023346;28;20116;-64
2021/07/26 10:05:19;;;;;;;5.38;3.45;;;;;;;;;;5019463;28;20042;-65
2021/07/26 10:07:44;;;;;;;7.60;4.20;;;;;;;;;;5016950;28;20038;-64
2021/07/26 10:10:10;;;;;;;7.38;3.97;;;;;;;;;;5011308;28;20114;-64
2021/07/26 10:12:37;;;;;;;6.95;4.32;;;;;;;;;;5011953;28;20022;-64
2021/07/26 10:15:02;;;;;;;8.00;4.60;;;;;;;;;;5021907;28;20021;-63
2021/07/26 10:17:28;;;;;;;7.20;4.47;;;;;;;;;;5027462;28;20105;-64
2021/07/26 10:19:53;;;;;;;6.60;4.03;;;;;;;;;;5022989;28;20030;-63
2021/07/26 10:22:22;;;;;;;6.60;4.05;;;;;;;;;;5024503;28;20045;-64
2021/07/26 10:24:50;;;;;;;6.68;3.35;;;;;;;;;;5011423;28;20063;-65
2021/07/26 10:27:20;;;;;;;5.65;3.67;;;;;;;;;;5016583;28;20030;-65
2021/07/26 10:29:48;;;;;;;9.25;4.72;;;;;;;;;;5019698;28;20037;-64
2021/07/26 10:32:29;;;;;;;7.85;4.05;;;;;;;;;;5027073;28;20033;-64
2021/07/26 10:34:54;;;;;;;5.05;3.30;;;;;;;;;;5025971;28;20489;-64
2021/07/26 10:37:38;;;;;;;6.03;3.92;;;;;;;;;;5022043;28;20075;-64
2021/07/26 10:40:22;;;;;;;7.03;3.85;;;;;;;;;;5027729;28;20025;-65
2021/07/26 10:42:48;;;;;;;7.30;4.07;;;;;;;;;;5015445;28;20077;-64
2021/07/26 10:45:32;;;;;;;7.55;4.18;;;;;;;;;;5017708;28;20481;-65
2021/07/26 10:48:15;;;;;;;5.68;3.55;;;;;;;;;;5009650;28;20112;-64
2021/07/26 10:50:41;;;;;;;7.15;3.45;;;;;;;;;;5016833;28;20033;-63
2021/07/26 10:53:06;;;;;;;7.13;3.80;;;;;;;;;;5022377;28;20021;-64
2021/07/26 10:55:50;;;;;;;9.50;4.40;;;;;;;;;;5011552;28;20034;-65
2021/07/26 10:58:38;;;;;;;4.78;3.70;;;;;;;;;;5009504;28;20705;-63
2021/07/26 11:01:19;;;;;;;5.13;3.30;;;;;;;;;;4975276;28;20041;-64
2021/07/26 11:03:44;;;;;;;9.07;3.70;;;;;;;;;;4979810;28;20583;-63
2021/07/26 11:06:09;;;;;;;7.88;4.40;;;;;;;;;;4980630;28;20082;-63
2021/07/26 11:08:35;;;;;;;9.00;3.57;;;;;;;;;;4986463;28;20030;-64
2021/07/26 11:11:00;;;;;;;6.60;3.53;;;;;;;;;;4976044;28;20278;-64
2021/07/26 11:13:43;;;;;;;7.15;3.05;;;;;;;;;;4980283;28;20142;-63
2021/07/26 11:16:08;;;;;;;6.93;4.45;;;;;;;;;;4986678;28;20136;-64
2021/07/26 11:18:40;;;;;;;6.50;3.65;;;;;;;;;;4974723;28;20030;-64
2021/07/26 11:21:06;;;;;;;5.45;3.53;;;;;;;;;;4982693;28;20034;-65
2021/07/26 11:23:48;;;;;;;6.22;3.88;;;;;;;;;;4968713;28;20153;-65
2021/07/26 11:26:13;;;;;;;5.93;3.85;;;;;;;;;;4971258;28;20035;-64
2021/07/26 11:28:39;;;;;;;8.77;4.30;;;;;;;;;;4968831;28;20030;-65
2021/07/26 11:31:04;;;;;;;7.18;4.20;;;;;;;;;;4980891;28;20041;-65
2021/07/26 11:33:30;;;;;;;6.95;3.83;;;;;;;;;;4969010;28;20031;-64
2021/07/26 11:35:55;;;;;;;8.50;3.95;;;;;;;;;;4968608;28;20096;-64
2021/07/26 11:38:20;;;;;;;6.47;3.53;;;;;;;;;;5011474;28;20033;-65
2021/07/26 11:40:46;;;;;;;6.18;3.80;;;;;;;;;;5022571;28;20082;-65
2021/07/26 11:43:11;;;;;;;9.60;4.30;;;;;;;;;;5018138;28;20126;-64
2021/07/26 11:45:36;;;;;;;8.45;3.97;;;;;;;;;;5005499;28;20148;-64
2021/07/26 11:48:06;;;;;;;6.68;3.67;;;;;;;;;;5005640;28;20041;-64
2021/07/26 11:50:36;;;;;;;5.65;3.70;;;;;;;;;;5025505;28;20112;-64
2021/07/26 11:53:01;;;;;;;9.38;3.80;;;;;;;;;;5025817;28;20450;-64
2021/07/26 11:55:30;;;;;;;6.10;3.70;;;;;;;;;;5015644;28;20068;-65
2021/07/26 11:57:56;;;;;;;7.95;4.32;;;;;;;;;;5009564;28;20026;-64
2021/07/26 12:00:28;;;;;;;9.00;3.50;;;;;;;;;;5010884;28;20385;-63
2021/07/26 12:02:53;;;;;;;6.78;3.63;;;;;;;;;;5003743;28;20036;-61
2021/07/26 12:05:26;;;;;;;7.78;4.32;;;;;;;;;;5008605;28;20381;-61
2021/07/26 12:07:51;;;;;;;8.55;4.63;;;;;;;;;;5007917;28;20093;-61
2021/07/26 12:10:16;;;;;;;6.00;3.80;;;;;;;;;;5026656;28;20749;-61
2021/07/26 12:12:46;;;;;;;8.05;3.47;;;;;;;;;;5011764;28;20256;-61
2021/07/26 12:15:23;;;;;;;6.47;3.60;;;;;;;;;;5016456;28;20028;-62
2021/07/26 12:18:02;;;;;;;8.32;3.63;;;;;;;;;;5011240;28;20037;-62
2021/07/26 12:20:27;;;;;;;5.28;3.20;;;;;;;;;;5009319;28;20382;-61
2021/07/26 12:22:52;;;;;;;5.47;3.53;;;;;;;;;;5012035;28;20032;-62
2021/07/26 12:25:18;;;;;;;5.17;3.60;;;;;;;;;;5003283;28;20091;-62
2021/07/26 12:27:52;;;;;;;6.72;3.78;;;;;;;;;;5007781;28;21225;-62
2021/07/26 12:30:17;;;;;;;7.65;3.65;;;;;;;;;;5004911;28;20030;-62
2021/07/26 12:32:47;;;;;;;7.30;3.27;;;;;;;;;;5008341;28;20034;-62
2021/07/26 12:35:12;;;;;;;;;;;;;;;;;;5004882;28;20765;-62
2021/07/26 12:37:37;;;;;;;5.83;3.63;;;;;;;;;;5009394;28;19905;-62
2021/07/26 12:40:13;;;;;;;8.15;3.95;;;;;;;;;;5012583;28;20029;-62
2021/07/26 12:42:38;;;;;;;5.30;3.47;;;;;;;;;;5002329;28;20042;-61
2021/07/26 12:45:18;;;;;;;4.73;3.50;;;;;;;;;;5019042;28;20036;-61
2021/07/26 12:47:44;;;;;;;5.93;3.85;;;;;;;;;;5003147;28;20117;-61
2021/07/26 12:50:09;;;;;;;4.82;3.70;;;;;;;;;;5008500;28;20109;-60
2021/07/26 12:52:34;;;;;;;6.07;3.85;;;;;;;;;;5008139;28;20049;-63
2021/07/26 12:54:59;;;;;;;6.23;3.60;;;;;;;;;;5007811;28;20026;-61
2021/07/26 12:57:26;;;;;;;5.37;3.73;;;;;;;;;;5024331;28;20079;-61
2021/07/26 12:59:51;;;;;;;5.13;3.58;;;;;;;;;;5019587;28;20117;-60
2021/07/26 13:02:17;;;;;;;5.97;4.67;;;;;;;;;;5018935;28;20101;-62
2021/07/26 13:04:42;;;;;;;7.05;4.40;;;;;;;;;;5024920;28;20025;-61
2021/07/26 13:07:07;;;;;;;5.53;4.10;;;;;;;;;;5024213;28;20439;-62
2021/07/26 13:09:32;;;;;;;6.10;3.70;;;;;;;;;;5015805;28;20300;-62
2021/07/26 13:11:57;;;;;;;6.53;3.90;;;;;;;;;;5032037;28;20423;-61
2021/07/26 13:14:23;;;;;;;5.97;3.77;;;;;;;;;;5018010;28;20034;-61
2021/07/26 13:16:48;;;;;;;9.30;3.70;;;;;;;;;;5031669;28;20079;-61
2021/07/26 13:19:13;;;;;;;7.00;3.60;;;;;;;;;;5017686;28;20026;-62
2021/07/26 13:21:38;;;;;;;5.53;3.63;;;;;;;;;;5011318;28;20391;-62
2021/07/26 13:24:03;;;;;;;5.90;3.35;;;;;;;;;;5003568;28;20022;-62
2021/07/26 13:26:28;;;;;;;6.83;3.70;;;;;;;;;;5008170;28;20064;-61
2021/07/26 13:28:53;;;;;;;7.07;3.87;;;;;;;;;;5002187;28;20629;-62
2021/07/26 13:31:19;;;;;;;5.00;3.53;;;;;;;;;;5026838;28;20036;-61
2021/07/26 13:33:44;;;;;;;4.70;3.00;;;;;;;;;;5017937;28;20751;-61
2021/07/26 13:36:09;;;;;;;5.32;3.03;;;;;;;;;;5013183;28;20030;-61
2021/07/26 13:38:35;;;;;;;5.63;3.30;;;;;;;;;;5012522;28;20114;-62
2021/07/26 13:41:00;;;;;;;4.80;3.40;;;;;;;;;;5011575;28;20523;-62
2021/07/26 13:43:26;;;;;;;5.30;3.57;;;;;;;;;;5016755;28;20195;-62
2021/07/26 13:45:51;;;;;;;4.43;3.00;;;;;;;;;;5014474;28;20300;-61
2021/07/26 13:48:16;;;;;;;5.57;3.80;;;;;;;;;;5017320;28;20041;-61
2021/07/26 13:50:42;;;;;;;5.70;3.42;;;;;;;;;;5016820;28;20055;-61
2021/07/26 13:53:07;;;;;;;5.90;3.65;;;;;;;;;;5011495;28;20036;-61
2021/07/26 13:55:32;;;;;;;4.60;2.93;;;;;;;;;;5017280;28;20049;-63
2021/07/26 13:57:57;;;;;;;6.43;3.93;;;;;;;;;;5010837;28;20029;-62
2021/07/26 14:00:23;;;;;;;5.40;3.77;;;;;;;;;;5013535;28;20633;-61
2021/07/26 14:02:48;;;;;;;5.45;3.58;;;;;;;;;;5019119;28;20026;-61
2021/07/26 14:05:14;;;;;;;7.05;3.00;;;;;;;;;;5017356;28;20034;-62
2021/07/26 14:07:39;;;;;;;4.60;3.70;;;;;;;;;;5030392;28;20080;-61
2021/07/26 14:10:06;;;;;;;6.63;3.65;;;;;;;;;;5030218;28;20040;-62
2021/07/26 14:12:31;;;;;;;4.93;3.47;;;;;;;;;;5011799;28;20117;-60
2021/07/26 14:14:56;;;;;;;6.75;3.67;;;;;;;;;;5024284;28;20108;-61
2021/07/26 14:17:21;;;;;;;6.20;2.83;;;;;;;;;;5018749;28;20026;-61
2021/07/26 14:19:48;;;;;;;5.50;3.45;;;;;;;;;;5029993;28;20117;-60
2021/07/26 14:22:13;;;;;;;5.60;3.13;;;;;;;;;;5029215;28;20041;-60
2021/07/26 14:24:38;;;;;;;5.38;3.60;;;;;;;;;;5020481;28;20026;-62
2021/07/26 14:27:04;;;;;;;5.30;3.30;;;;;;;;;;5021961;28;20042;-60
2021/07/26 14:29:29;;;;;;;6.20;3.30;;;;;;;;;;5027380;28;20033;-64
2021/07/26 14:31:55;;;;;;;5.97;3.22;;;;;;;;;;5023721;28;20093;-63
2021/07/26 14:34:20;;;;;;;6.23;3.53;;;;;;;;;;5013974;28;20080;-64
2021/07/26 14:36:45;;;;;;;5.50;3.40;;;;;;;;;;5014731;28;20036;-65
2021/07/26 14:39:11;;;;;;;6.47;3.15;;;;;;;;;;5030313;28;20520;-64